Time;durP1;ratioP1;P1;durP2;ratioP2;P2;SDS_P1;SDS_P2;PMS_P1;PMS_P2;Temp;Humidity;BMP_temperature;BMP_pressure;BME280_temperature;BME280_humidity;BME280_pressure;Samples;Min_cycle;Max_cycle;Signal;HPM_P1;HPM_P2
2024/01/25 00:01:58;;;;;;;6.63;2.03;;;9.20;99.90;;;;;;5047399;28;20229;-77
2024/01/25 00:04:26;;;;;;;6.00;2.35;;;9.20;99.90;;;;;;5046905;28;20582;-76
2024/01/25 00:06:53;;;;;;;3.28;2.03;;;9.30;99.90;;;;;;5049899;28;20204;-76
2024/01/25 00:09:20;;;;;;;8.55;2.40;;;9.30;99.90;;;;;;5051130;28;20785;-77
2024/01/25 00:11:46;;;;;;;8.20;2.50;;;9.30;99.90;;;;;;5047344;28;20231;-77
2024/01/25 00:14:13;;;;;;;5.43;2.03;;;9.30;99.90;;;;;;5047673;28;20209;-77
2024/01/25 00:16:42;;;;;;;5.80;2.08;;;9.30;99.90;;;;;;5051290;28;20266;-77
2024/01/25 00:19:09;;;;;;;8.27;2.45;;;9.30;99.90;;;;;;5046603;28;20201;-76
2024/01/25 00:21:42;;;;;;;3.15;1.35;;;9.30;99.90;;;;;;5048214;28;20211;-76
2024/01/25 00:24:09;;;;;;;5.45;2.08;;;9.40;99.90;;;;;;5050170;28;20201;-76
2024/01/25 00:26:36;;;;;;;5.05;2.22;;;9.30;99.90;;;;;;5048956;28;20205;-76
2024/01/25 00:29:02;;;;;;;3.00;1.67;;;9.40;99.90;;;;;;5049529;28;20227;-76
2024/01/25 00:31:29;;;;;;;5.07;1.77;;;9.40;99.90;;;;;;5045601;28;20204;-76
2024/01/25 00:33:58;;;;;;;7.60;2.47;;;9.40;99.90;;;;;;5047375;28;20229;-76
2024/01/25 00:36:26;;;;;;;7.05;3.00;;;9.40;99.90;;;;;;5050955;28;20215;-76
2024/01/25 00:38:55;;;;;;;6.90;1.88;;;9.40;99.90;;;;;;5049556;28;20202;-77
2024/01/25 00:41:22;;;;;;;4.57;2.25;;;9.40;99.90;;;;;;5050708;28;20208;-76
2024/01/25 00:43:49;;;;;;;10.25;2.92;;;9.40;99.90;;;;;;5049698;28;20230;-76
2024/01/25 00:46:16;;;;;;;10.43;2.85;;;9.40;99.90;;;;;;5047705;28;20212;-76
2024/01/25 00:48:43;;;;;;;4.72;1.95;;;9.40;99.90;;;;;;5042927;28;20205;-77
2024/01/25 00:51:16;;;;;;;10.25;2.58;;;9.40;99.90;;;;;;5043578;28;20213;-76
2024/01/25 00:53:43;;;;;;;8.15;1.88;;;9.40;99.90;;;;;;5042903;28;20228;-76
2024/01/25 00:56:13;;;;;;;8.52;2.60;;;9.40;99.90;;;;;;5048944;28;20207;-76
2024/01/25 00:58:40;;;;;;;5.03;2.00;;;9.40;99.90;;;;;;5042122;28;20205;-76
2024/01/25 01:01:09;;;;;;;8.90;2.10;;;9.40;99.90;;;;;;5047963;28;20216;-76
2024/01/25 01:03:36;;;;;;;6.90;2.17;;;9.40;99.90;;;;;;5048624;28;20585;-77
2024/01/25 01:06:04;;;;;;;7.50;2.25;;;9.40;99.90;;;;;;5049036;28;20209;-76
2024/01/25 01:08:31;;;;;;;4.28;1.58;;;9.40;99.90;;;;;;5048303;28;20578;-76
2024/01/25 01:10:58;;;;;;;2.97;1.55;;;9.50;99.90;;;;;;5049685;28;20205;-76
2024/01/25 01:13:26;;;;;;;5.10;2.05;;;9.50;99.90;;;;;;5042047;28;20240;-76
2024/01/25 01:15:52;;;;;;;7.43;2.30;;;9.50;99.90;;;;;;5049371;28;20621;-76
2024/01/25 01:18:19;;;;;;;8.98;3.00;;;9.50;99.90;;;;;;5047664;28;20206;-76
2024/01/25 01:20:46;;;;;;;9.35;2.75;;;9.50;99.90;;;;;;5042948;28;20590;-76
2024/01/25 01:23:13;;;;;;;7.65;1.85;;;9.50;99.90;;;;;;5049065;28;20231;-77
2024/01/25 01:25:39;;;;;;;5.75;1.80;;;9.50;99.90;;;;;;5048870;28;20220;-76
2024/01/25 01:28:06;;;;;;;5.10;1.40;;;9.50;99.90;;;;;;5048785;28;20205;-76
2024/01/25 01:30:34;;;;;;;9.30;2.33;;;9.50;99.90;;;;;;5049339;28;20202;-76
2024/01/25 01:33:01;;;;;;;4.80;1.83;;;9.50;99.90;;;;;;5043199;28;20694;-76
2024/01/25 01:35:28;;;;;;;8.13;2.30;;;9.40;99.90;;;;;;5048119;28;20212;-76
2024/01/25 01:37:54;;;;;;;4.28;1.55;;;9.40;99.90;;;;;;5048986;28;20201;-76
2024/01/25 01:40:21;;;;;;;3.40;1.45;;;9.40;99.90;;;;;;5049239;28;20208;-77
2024/01/25 01:42:48;;;;;;;5.50;2.40;;;9.40;99.90;;;;;;5049660;28;20221;-76
2024/01/25 01:45:15;;;;;;;3.33;1.75;;;9.40;99.90;;;;;;5049895;28;20209;-76
2024/01/25 01:47:43;;;;;;;6.95;1.73;;;9.40;99.90;;;;;;5048842;28;20299;-76
2024/01/25 01:50:10;;;;;;;3.72;1.45;;;9.40;99.90;;;;;;5049716;28;20201;-76
2024/01/25 01:52:37;;;;;;;9.23;2.60;;;9.40;99.90;;;;;;5047769;28;20721;-76
2024/01/25 01:55:06;;;;;;;9.73;3.03;;;9.40;99.90;;;;;;5049389;28;20666;-76
2024/01/25 01:57:33;;;;;;;7.90;3.30;;;9.40;99.90;;;;;;5048948;28;20702;-75
2024/01/25 02:00:03;;;;;;;4.97;2.10;;;9.40;99.90;;;;;;5049020;28;20210;-76
2024/01/25 02:02:30;;;;;;;5.90;2.33;;;9.40;99.90;;;;;;5048627;28;20235;-76
2024/01/25 02:04:58;;;;;;;12.48;2.45;;;9.40;99.90;;;;;;5053202;28;20201;-76
2024/01/25 02:07:25;;;;;;;3.38;1.85;;;9.30;99.90;;;;;;5053454;28;20210;-76
2024/01/25 02:09:51;;;;;;;7.50;2.70;;;9.30;99.90;;;;;;5053772;28;20560;-76
2024/01/25 02:12:18;;;;;;;5.93;2.08;;;9.30;99.90;;;;;;5052650;28;20307;-76
2024/01/25 02:14:46;;;;;;;7.15;2.50;;;9.30;99.90;;;;;;5052518;28;20208;-76
2024/01/25 02:17:13;;;;;;;6.80;2.35;;;9.30;99.90;;;;;;5045687;28;20213;-76
2024/01/25 02:19:40;;;;;;;10.15;2.28;;;9.30;99.90;;;;;;5052610;28;20201;-77
2024/01/25 02:22:08;;;;;;;4.25;1.73;;;9.30;99.90;;;;;;5052951;28;20225;-76
2024/01/25 02:24:36;;;;;;;8.75;2.17;;;9.30;99.90;;;;;;5052189;28;20201;-76
2024/01/25 02:27:05;;;;;;;6.13;3.15;;;9.30;99.90;;;;;;5052957;28;20705;-77
2024/01/25 02:29:31;;;;;;;2.95;2.17;;;9.20;99.90;;;;;;5052673;28;20232;-76
2024/01/25 02:31:58;;;;;;;9.60;2.55;;;9.20;99.90;;;;;;5053135;28;20225;-77
2024/01/25 02:34:25;;;;;;;4.40;2.10;;;9.20;99.90;;;;;;5052526;28;20231;-76
2024/01/25 02:36:51;;;;;;;8.23;2.10;;;9.20;99.90;;;;;;5053123;28;20204;-76
2024/01/25 02:39:18;;;;;;;7.65;2.40;;;9.20;99.90;;;;;;5052895;28;20295;-77
2024/01/25 02:41:46;;;;;;;7.25;1.90;;;9.20;99.90;;;;;;5044815;28;20685;-76
2024/01/25 02:44:13;;;;;;;5.30;2.25;;;9.10;99.90;;;;;;5053149;28;20209;-76
2024/01/25 02:46:40;;;;;;;5.85;1.65;;;9.10;99.90;;;;;;5052855;28;20216;-76
2024/01/25 02:49:06;;;;;;;10.38;2.38;;;9.10;99.90;;;;;;5046856;28;20213;-77
2024/01/25 02:51:33;;;;;;;8.50;2.05;;;9.10;99.90;;;;;;5041767;28;20225;-76
2024/01/25 02:54:00;;;;;;;3.13;1.80;;;9.10;99.90;;;;;;5047016;28;20220;-76
2024/01/25 02:56:33;;;;;;;4.43;2.05;;;9.10;99.90;;;;;;5051674;28;20738;-76
2024/01/25 02:59:01;;;;;;;4.60;1.88;;;9.10;99.90;;;;;;5038953;28;20296;-77
2024/01/25 03:01:28;;;;;;;5.63;1.95;;;9.10;99.90;;;;;;5043052;28;20217;-77
2024/01/25 03:03:55;;;;;;;8.30;2.50;;;9.10;99.90;;;;;;5038027;28;20221;-76
2024/01/25 03:06:22;;;;;;;5.45;2.00;;;9.10;99.90;;;;;;5036197;28;20202;-76
2024/01/25 03:08:48;;;;;;;3.15;1.75;;;9.10;99.90;;;;;;5033405;28;20216;-76
2024/01/25 03:11:15;;;;;;;3.05;1.42;;;9.00;99.90;;;;;;5041108;28;20210;-77
2024/01/25 03:13:42;;;;;;;8.93;2.30;;;9.00;99.90;;;;;;5052009;28;20227;-76
2024/01/25 03:16:10;;;;;;;4.78;1.73;;;9.00;99.90;;;;;;5043533;28;20228;-76
2024/01/25 03:18:36;;;;;;;5.78;2.13;;;9.00;99.90;;;;;;5036524;28;20209;-76
2024/01/25 03:21:03;;;;;;;4.50;1.92;;;9.00;99.90;;;;;;5053234;28;20622;-77
2024/01/25 03:23:30;;;;;;;10.88;2.70;;;9.00;99.90;;;;;;5044793;28;20226;-76
2024/01/25 03:25:57;;;;;;;11.40;2.35;;;8.90;99.90;;;;;;5047315;28;20560;-76
2024/01/25 03:28:23;;;;;;;4.68;1.63;;;8.90;99.90;;;;;;5041916;28;20648;-76
2024/01/25 03:30:50;;;;;;;3.58;1.98;;;8.90;99.90;;;;;;5041390;28;20212;-76
2024/01/25 03:33:18;;;;;;;2.45;1.23;;;8.80;99.90;;;;;;5041297;28;20228;-76
2024/01/25 03:35:45;;;;;;;11.88;2.28;;;8.80;99.90;;;;;;5051964;28;20224;-76
2024/01/25 03:38:13;;;;;;;9.18;2.60;;;8.80;99.90;;;;;;5045526;28;20213;-76
2024/01/25 03:40:40;;;;;;;5.05;1.60;;;8.80;99.90;;;;;;5051528;28;20686;-77
2024/01/25 03:43:07;;;;;;;10.20;1.95;;;8.90;99.90;;;;;;5046304;28;20227;-76
2024/01/25 03:45:33;;;;;;;3.97;2.05;;;8.80;99.90;;;;;;5048718;28;20208;-76
2024/01/25 03:48:00;;;;;;;11.48;2.13;;;8.90;99.90;;;;;;5041304;28;20212;-77
2024/01/25 03:50:28;;;;;;;8.18;2.05;;;8.80;99.90;;;;;;5041548;28;20216;-76
2024/01/25 03:52:55;;;;;;;6.90;2.10;;;8.70;99.90;;;;;;5037831;28;20232;-77
2024/01/25 03:55:22;;;;;;;12.05;1.95;;;8.80;99.90;;;;;;5051884;28;20686;-77
2024/01/25 03:57:49;;;;;;;5.88;1.58;;;8.80;99.90;;;;;;5036688;28;20675;-78
2024/01/25 04:00:16;;;;;;;6.07;1.75;;;8.80;99.90;;;;;;5042102;28;20212;-78
2024/01/25 04:02:43;;;;;;;8.75;2.63;;;8.70;99.90;;;;;;5043527;28;20228;-78
2024/01/25 04:05:10;;;;;;;3.05;1.70;;;8.80;99.90;;;;;;5042574;28;20212;-78
2024/01/25 04:07:38;;;;;;;4.95;1.52;;;8.80;99.90;;;;;;5044003;28;20701;-79
2024/01/25 04:10:05;;;;;;;7.32;1.60;;;8.80;99.90;;;;;;5043174;28;20212;-77
2024/01/25 04:12:33;;;;;;;5.43;2.13;;;8.80;99.90;;;;;;5041139;28;20231;-77
2024/01/25 04:15:00;;;;;;;8.63;2.42;;;8.80;99.90;;;;;;5040223;28;20322;-77
2024/01/25 04:17:26;;;;;;;3.78;1.88;;;8.80;99.90;;;;;;5038346;28;20582;-77
2024/01/25 04:19:53;;;;;;;4.65;1.25;;;8.70;99.90;;;;;;5042748;28;20221;-77
2024/01/25 04:22:20;;;;;;;6.80;1.70;;;8.70;99.90;;;;;;5051078;28;20705;-77
2024/01/25 04:24:49;;;;;;;3.83;2.22;;;8.70;99.90;;;;;;5047295;28;20209;-77
2024/01/25 04:27:16;;;;;;;2.85;1.30;;;8.60;99.90;;;;;;5043506;28;20257;-77
2024/01/25 04:29:43;;;;;;;4.93;2.42;;;8.60;99.90;;;;;;5043020;28;20254;-77
2024/01/25 04:32:10;;;;;;;6.25;1.77;;;8.70;99.90;;;;;;5041697;28;20355;-77
2024/01/25 04:34:37;;;;;;;3.83;2.30;;;8.70;99.90;;;;;;5042115;28;20220;-77
2024/01/25 04:37:04;;;;;;;8.13;1.95;;;8.70;99.90;;;;;;5043068;28;20667;-77
2024/01/25 04:39:31;;;;;;;8.98;2.63;;;8.70;99.90;;;;;;5045121;28;20692;-77
2024/01/25 04:41:59;;;;;;;3.67;2.00;;;8.70;99.90;;;;;;5040103;28;20457;-77
2024/01/25 04:44:26;;;;;;;4.57;1.50;;;8.70;99.90;;;;;;5034094;28;20198;-76
2024/01/25 04:46:54;;;;;;;6.57;2.08;;;8.70;99.90;;;;;;5037902;28;20209;-77
2024/01/25 04:49:20;;;;;;;9.13;2.38;;;8.70;99.90;;;;;;5042470;28;20202;-76
2024/01/25 04:51:47;;;;;;;9.45;3.38;;;8.70;99.90;;;;;;5042979;28;20223;-76
2024/01/25 04:54:15;;;;;;;14.60;2.63;;;8.70;99.90;;;;;;5043918;28;20260;-76
2024/01/25 04:56:42;;;;;;;12.45;2.65;;;8.70;99.90;;;;;;5034701;28;20219;-76
2024/01/25 04:59:10;;;;;;;6.65;3.03;;;8.70;99.90;;;;;;5039607;28;20209;-76
2024/01/25 05:01:37;;;;;;;3.88;2.00;;;8.70;99.90;;;;;;5036141;28;20213;-76
2024/01/25 05:04:04;;;;;;;4.75;2.13;;;8.70;99.90;;;;;;5040676;28;20231;-76
2024/01/25 05:06:31;;;;;;;4.72;2.13;;;8.60;99.90;;;;;;5049026;28;20205;-77
2024/01/25 05:08:57;;;;;;;8.75;2.28;;;8.60;99.90;;;;;;5037861;28;20299;-76
2024/01/25 05:11:24;;;;;;;9.60;3.17;;;8.60;99.90;;;;;;5037373;28;20213;-75
2024/01/25 05:13:51;;;;;;;5.07;2.15;;;8.60;99.90;;;;;;5043953;28;20240;-74
2024/01/25 05:16:19;;;;;;;5.22;2.35;;;8.50;99.90;;;;;;5052310;28;20594;-75
2024/01/25 05:18:46;;;;;;;5.97;2.10;;;8.50;99.90;;;;;;5043783;28;20201;-75
2024/01/25 05:21:12;;;;;;;6.15;2.47;;;8.50;99.90;;;;;;5040687;28;20208;-75
2024/01/25 05:23:39;;;;;;;7.15;2.35;;;8.40;99.90;;;;;;5048906;28;20587;-76
2024/01/25 05:26:07;;;;;;;5.18;2.38;;;8.30;99.90;;;;;;5045359;28;20215;-76
2024/01/25 05:28:33;;;;;;;5.72;2.45;;;8.30;99.90;;;;;;5043957;28;20207;-75
2024/01/25 05:31:00;;;;;;;6.55;2.53;;;8.30;99.90;;;;;;5048215;28;20304;-76
2024/01/25 05:33:28;;;;;;;10.48;1.95;;;8.20;99.90;;;;;;5042094;28;20822;-75
2024/01/25 05:35:55;;;;;;;2.78;1.77;;;8.20;99.90;;;;;;5040785;28;20231;-76
2024/01/25 05:38:22;;;;;;;5.60;2.05;;;8.10;99.90;;;;;;5043018;28;20288;-76
2024/01/25 05:40:48;;;;;;;10.68;2.67;;;8.10;99.90;;;;;;5045759;28;20197;-76
2024/01/25 05:43:16;;;;;;;8.60;2.20;;;8.10;99.90;;;;;;5042752;28;20597;-76
2024/01/25 05:45:43;;;;;;;6.57;2.05;;;8.00;99.90;;;;;;5047238;28;20203;-76
2024/01/25 05:48:10;;;;;;;6.35;1.60;;;8.00;99.90;;;;;;5049578;28;20212;-76
2024/01/25 05:50:38;;;;;;;15.45;2.55;;;7.90;99.90;;;;;;5046686;28;20617;-76
2024/01/25 05:53:04;;;;;;;3.28;1.95;;;7.80;99.90;;;;;;5042630;28;20234;-75
2024/01/25 05:55:31;;;;;;;6.43;2.05;;;7.80;99.90;;;;;;5047538;28;20216;-75
2024/01/25 05:57:58;;;;;;;2.55;1.85;;;7.70;99.90;;;;;;5050517;28;20586;-75
2024/01/25 06:00:25;;;;;;;4.75;2.40;;;7.70;99.90;;;;;;5045448;28;20231;-75
2024/01/25 06:02:51;;;;;;;6.70;2.28;;;7.70;99.90;;;;;;5045578;28;20708;-74
2024/01/25 06:05:18;;;;;;;3.70;1.80;;;7.70;99.90;;;;;;5044402;28;20207;-74
2024/01/25 06:07:46;;;;;;;7.50;1.90;;;7.60;99.90;;;;;;5046608;28;20696;-75
2024/01/25 06:10:13;;;;;;;2.88;2.00;;;7.60;99.90;;;;;;5049660;28;20582;-75
2024/01/25 06:12:39;;;;;;;9.35;2.53;;;7.50;99.90;;;;;;5041781;28;20644;-75
2024/01/25 06:15:08;;;;;;;4.65;2.28;;;7.50;99.90;;;;;;5049432;28;20218;-75
2024/01/25 06:17:35;;;;;;;3.25;1.98;;;7.50;99.90;;;;;;5046834;28;20208;-75
2024/01/25 06:20:02;;;;;;;2.83;1.92;;;7.40;99.90;;;;;;5047543;28;20218;-75
2024/01/25 06:22:29;;;;;;;7.88;2.33;;;7.40;99.90;;;;;;5047900;28;20219;-75
2024/01/25 06:24:57;;;;;;;4.90;2.35;;;7.40;99.90;;;;;;5041840;28;20214;-75
2024/01/25 06:27:24;;;;;;;7.43;2.70;;;7.40;99.90;;;;;;5053189;28;20699;-75
2024/01/25 06:29:50;;;;;;;6.22;1.30;;;7.30;99.90;;;;;;5045893;28;20207;-75
2024/01/25 06:32:17;;;;;;;6.90;2.20;;;7.30;99.90;;;;;;5049869;28;20227;-75
2024/01/25 06:34:44;;;;;;;6.30;2.08;;;7.30;99.90;;;;;;5043837;28;20235;-75
2024/01/25 06:37:11;;;;;;;10.10;2.00;;;7.30;99.90;;;;;;5039025;28;20584;-75
2024/01/25 06:39:38;;;;;;;3.30;2.00;;;7.20;99.90;;;;;;5041546;28;20253;-75
2024/01/25 06:42:07;;;;;;;3.72;1.55;;;7.10;99.90;;;;;;5038955;28;20235;-75
2024/01/25 06:44:33;;;;;;;3.00;2.05;;;7.10;99.90;;;;;;5051493;28;20198;-74
2024/01/25 06:47:00;;;;;;;5.25;2.72;;;7.10;99.90;;;;;;5039343;28;20295;-75
2024/01/25 06:49:27;;;;;;;8.68;2.65;;;7.00;99.90;;;;;;5040306;28;20203;-75
2024/01/25 06:51:53;;;;;;;12.07;2.83;;;7.10;99.90;;;;;;5042195;28;20611;-74
2024/01/25 06:54:20;;;;;;;4.35;1.80;;;7.00;99.90;;;;;;5047320;28;20227;-75
2024/01/25 06:56:47;;;;;;;4.90;2.00;;;7.00;99.90;;;;;;5047831;28;20210;-75
2024/01/25 06:59:15;;;;;;;7.57;2.45;;;6.90;99.90;;;;;;5043269;28;20293;-75
2024/01/25 07:01:42;;;;;;;7.30;2.47;;;6.90;99.90;;;;;;5051959;28;20380;-74
2024/01/25 07:04:08;;;;;;;5.90;2.42;;;6.80;99.90;;;;;;5038523;28;20219;-74
2024/01/25 07:06:35;;;;;;;8.77;2.33;;;6.80;99.90;;;;;;5041701;28;20214;-74
2024/01/25 07:09:02;;;;;;;14.40;2.60;;;6.80;99.90;;;;;;5044442;28;20222;-75
2024/01/25 07:11:29;;;;;;;5.13;1.60;;;6.80;99.90;;;;;;5040558;28;20210;-76
2024/01/25 07:13:56;;;;;;;4.82;2.22;;;6.80;99.90;;;;;;5044924;28;20235;-74
2024/01/25 07:16:24;;;;;;;8.93;3.17;;;6.80;99.90;;;;;;5039824;28;20207;-75
2024/01/25 07:18:51;;;;;;;10.02;1.92;;;6.80;99.90;;;;;;5041193;28;20217;-75
2024/01/25 07:21:18;;;;;;;10.18;2.10;;;6.80;99.90;;;;;;5049041;28;20289;-75
2024/01/25 07:23:44;;;;;;;14.75;2.50;;;6.80;99.90;;;;;;5039274;28;20581;-74
2024/01/25 07:26:17;;;;;;;7.82;2.22;;;6.80;99.90;;;;;;5043530;28;20199;-75
2024/01/25 07:28:44;;;;;;;6.90;2.05;;;6.80;99.90;;;;;;5039066;28;20200;-74
2024/01/25 07:31:11;;;;;;;6.40;2.17;;;6.80;99.90;;;;;;5044012;28;20204;-74
2024/01/25 07:33:39;;;;;;;6.43;2.25;;;6.70;99.90;;;;;;5041880;28;20226;-75
2024/01/25 07:36:06;;;;;;;9.05;2.38;;;6.70;99.90;;;;;;5046734;28;20250;-75
2024/01/25 07:38:33;;;;;;;8.77;1.65;;;6.60;99.90;;;;;;5042647;28;20208;-74
2024/01/25 07:41:00;;;;;;;4.80;2.05;;;6.60;99.90;;;;;;5045046;28;20478;-75
2024/01/25 07:43:26;;;;;;;8.93;2.72;;;6.60;99.90;;;;;;5040543;28;20231;-74
2024/01/25 07:45:53;;;;;;;3.35;1.50;;;6.50;99.90;;;;;;5046840;28;20691;-74
2024/01/25 07:48:20;;;;;;;2.78;1.92;;;6.60;99.90;;;;;;5042860;28;20216;-74
2024/01/25 07:50:48;;;;;;;3.90;1.70;;;6.60;99.90;;;;;;5046979;28;20250;-74
2024/01/25 07:53:16;;;;;;;4.57;2.10;;;6.60;99.90;;;;;;5039592;28;20735;-74
2024/01/25 07:55:43;;;;;;;7.32;2.15;;;6.70;99.90;;;;;;5051391;28;20246;-74
2024/01/25 07:58:10;;;;;;;10.23;3.25;;;6.70;99.90;;;;;;5043918;28;20215;-74
2024/01/25 08:00:36;;;;;;;13.75;2.60;;;6.70;99.90;;;;;;5045654;28;20207;-74
2024/01/25 08:03:04;;;;;;;3.60;1.98;;;6.90;99.90;;;;;;5042615;28;20314;-75
2024/01/25 08:05:32;;;;;;;6.28;2.55;;;7.30;99.90;;;;;;5042718;28;20676;-75
2024/01/25 08:08:00;;;;;;;3.28;2.08;;;7.90;99.90;;;;;;5051347;28;20208;-74
2024/01/25 08:10:27;;;;;;;6.47;2.20;;;8.40;99.90;;;;;;5047034;28;20693;-74
2024/01/25 08:12:53;;;;;;;3.72;2.85;;;8.80;99.90;;;;;;5042083;28;20240;-74
2024/01/25 08:15:20;;;;;;;6.30;2.38;;;9.00;99.90;;;;;;5047896;28;20320;-74
2024/01/25 08:17:47;;;;;;;5.85;3.15;;;9.10;99.90;;;;;;5051405;28;20205;-74
2024/01/25 08:20:14;;;;;;;8.60;2.20;;;9.20;99.90;;;;;;5047852;28;20210;-75
2024/01/25 08:22:41;;;;;;;6.93;2.40;;;9.30;99.90;;;;;;5046793;28;20221;-75
2024/01/25 08:25:11;;;;;;;3.65;1.67;;;9.60;99.90;;;;;;5040042;28;20571;-75
2024/01/25 08:27:38;;;;;;;4.43;1.95;;;9.80;99.90;;;;;;5046363;28;20201;-75
2024/01/25 08:30:06;;;;;;;3.10;1.80;;;10.20;99.90;;;;;;5040661;28;20600;-75
2024/01/25 08:32:32;;;;;;;5.88;2.40;;;10.50;99.90;;;;;;5045656;28;20221;-75
2024/01/25 08:34:59;;;;;;;3.00;2.10;;;11.10;99.90;;;;;;5045110;28;20227;-75
2024/01/25 08:37:26;;;;;;;8.13;2.50;;;11.90;99.90;;;;;;5048648;28;20205;-75
2024/01/25 08:39:53;;;;;;;5.30;2.53;;;12.50;99.90;;;;;;5046624;28;20209;-75
2024/01/25 08:42:21;;;;;;;8.00;2.55;;;13.00;99.90;;;;;;5039937;28;20609;-75
2024/01/25 08:44:49;;;;;;;8.02;2.10;;;13.30;99.90;;;;;;5043176;28;20682;-74
2024/01/25 08:47:16;;;;;;;3.70;2.00;;;14.00;99.90;;;;;;5047761;28;20204;-75
2024/01/25 08:49:43;;;;;;;4.90;2.23;;;14.90;99.90;;;;;;5046844;28;20215;-75
2024/01/25 08:52:10;;;;;;;3.40;2.00;;;15.80;99.90;;;;;;5043119;28;20566;-75
2024/01/25 08:54:37;;;;;;;4.17;2.10;;;16.50;99.90;;;;;;5046789;28;20460;-75
2024/01/25 08:57:04;;;;;;;4.00;1.70;;;17.50;99.90;;;;;;5045343;28;20655;-76
2024/01/25 08:59:35;;;;;;;3.20;1.97;;;18.20;99.90;;;;;;5045298;28;20460;-75
2024/01/25 09:02:01;;;;;;;5.00;1.97;;;18.20;99.90;;;;;;5045534;28;20483;-75
2024/01/25 09:04:28;;;;;;;3.17;1.97;;;18.40;99.90;;;;;;5041333;28;20461;-75
2024/01/25 09:06:54;;;;;;;4.80;2.20;;;19.70;99.90;;;;;;5043471;28;20503;-75
2024/01/25 09:09:21;;;;;;;5.10;2.20;;;20.60;98.90;;;;;;5040341;28;20496;-76
2024/01/25 09:11:47;;;;;;;5.70;2.20;;;21.60;98.00;;;;;;5043705;28;20219;-75
2024/01/25 09:14:14;;;;;;;5.47;2.00;;;22.80;96.40;;;;;;5043586;28;20852;-75
2024/01/25 09:16:42;;;;;;;11.00;2.80;;;24.00;94.70;;;;;;5047687;28;20554;-75
2024/01/25 09:19:09;;;;;;;5.13;1.90;;;24.40;93.20;;;;;;5051228;28;20551;-75
2024/01/25 09:21:38;;;;;;;4.53;2.03;;;25.10;93.00;;;;;;5051033;28;20844;-75
2024/01/25 09:24:05;;;;;;;6.00;2.10;;;25.80;91.80;;;;;;5047562;28;20455;-75
2024/01/25 09:26:32;;;;;;;1.93;1.67;;;26.50;90.60;;;;;;5047985;28;20463;-75
2024/01/25 09:28:59;;;;;;;4.17;2.07;;;26.20;90.30;;;;;;5047088;28;20933;-75
2024/01/25 09:31:26;;;;;;;6.43;2.43;;;25.60;89.20;;;;;;5045311;28;20461;-75
2024/01/25 09:33:54;;;;;;;7.23;2.43;;;24.70;90.80;;;;;;5048029;28;20486;-75
2024/01/25 09:36:20;;;;;;;6.13;2.03;;;24.60;90.60;;;;;;5044585;28;20882;-75
2024/01/25 09:38:47;;;;;;;4.10;1.87;;;25.40;90.30;;;;;;5048081;28;20483;-75
2024/01/25 09:41:15;;;;;;;3.00;1.73;;;26.10;89.20;;;;;;5047797;28;20960;-75
2024/01/25 09:43:42;;;;;;;3.93;2.07;;;26.50;87.20;;;;;;5047942;28;20479;-75
2024/01/25 09:46:14;;;;;;;5.47;2.50;;;25.90;87.70;;;;;;5048834;28;20455;-76
2024/01/25 09:48:43;;;;;;;4.70;1.80;;;23.80;90.00;;;;;;5047698;28;20558;-76
2024/01/25 09:51:12;;;;;;;2.60;2.23;;;21.50;91.10;;;;;;5045756;28;20944;-76
2024/01/25 09:53:41;;;;;;;6.03;2.20;;;20.30;92.30;;;;;;5047422;28;20491;-75
2024/01/25 09:56:09;;;;;;;4.80;2.20;;;19.10;93.50;;;;;;5048934;28;20537;-75
2024/01/25 09:58:40;;;;;;;3.00;1.73;;;18.40;94.80;;;;;;5050083;28;20485;-75
2024/01/25 10:01:10;;;;;;;3.97;1.90;;;18.90;93.90;;;;;;5052316;28;20463;-75
2024/01/25 10:03:37;;;;;;;8.73;2.67;;;19.60;93.40;;;;;;5047226;28;20476;-75
2024/01/25 10:06:04;;;;;;;6.80;2.40;;;19.60;93.00;;;;;;5046718;28;20467;-75
2024/01/25 10:08:32;;;;;;;3.53;1.53;;;18.70;93.90;;;;;;5046427;28;20460;-75
2024/01/25 10:10:59;;;;;;;4.87;1.57;;;17.80;94.00;;;;;;5050819;28;20460;-75
2024/01/25 10:13:26;;;;;;;6.30;2.50;;;16.90;95.40;;;;;;5048381;28;20490;-74
2024/01/25 10:15:54;;;;;;;3.70;1.90;;;16.70;96.00;;;;;;5047837;28;20490;-74
2024/01/25 10:18:21;;;;;;;3.63;1.70;;;16.80;95.90;;;;;;5050952;28;20491;-74
2024/01/25 10:20:48;;;;;;;5.13;2.03;;;16.40;95.50;;;;;;5048650;28;20906;-75
2024/01/25 10:23:14;;;;;;;5.47;1.97;;;15.60;96.60;;;;;;5050991;28;20479;-75
2024/01/25 10:25:42;;;;;;;4.57;1.90;;;15.20;97.20;;;;;;5047661;28;20539;-75
2024/01/25 10:28:09;;;;;;;4.50;1.97;;;15.70;96.80;;;;;;5049219;28;20452;-75
2024/01/25 10:30:37;;;;;;;4.57;2.30;;;15.50;96.60;;;;;;5047238;28;20471;-74
2024/01/25 10:33:05;;;;;;;2.70;1.80;;;15.20;96.80;;;;;;5047751;28;20479;-75
2024/01/25 10:35:32;;;;;;;5.30;1.90;;;15.10;97.30;;;;;;5048780;28;20484;-75
2024/01/25 10:37:59;;;;;;;7.63;2.17;;;14.90;96.80;;;;;;5050935;28;20500;-75
2024/01/25 10:40:29;;;;;;;4.30;1.70;;;14.50;97.40;;;;;;5047851;28;20840;-75
2024/01/25 10:42:57;;;;;;;2.40;1.57;;;14.60;97.80;;;;;;5050885;28;20486;-76
2024/01/25 10:45:24;;;;;;;5.57;1.97;;;16.00;96.90;;;;;;5045450;28;20555;-75
2024/01/25 10:47:49;;;;;;;4.73;1.57;;;16.60;95.90;;;;;;5048497;28;20459;-75
2024/01/25 10:50:16;;;;;;;6.17;2.33;;;16.30;96.30;;;;;;5047981;28;20478;-75
2024/01/25 10:52:44;;;;;;;4.60;1.63;;;16.60;97.10;;;;;;5050722;28;20221;-75
2024/01/25 10:55:12;;;;;;;9.60;2.00;;;17.60;95.40;;;;;;5051333;28;20470;-75
2024/01/25 10:57:40;;;;;;;3.70;1.43;;;18.00;95.00;;;;;;5050014;28;20469;-75
2024/01/25 11:00:11;;;;;;;3.60;1.53;;;19.50;94.30;;;;;;5053764;28;20467;-75
2024/01/25 11:02:39;;;;;;;5.03;1.73;;;21.30;93.10;;;;;;5048309;28;20500;-76
2024/01/25 11:05:09;;;;;;;3.47;1.47;;;22.50;92.40;;;;;;5050221;28;20460;-76
2024/01/25 11:07:43;;;;;;;2.97;1.60;;;24.30;90.80;;;;;;5048447;28;20460;-76
2024/01/25 11:10:14;;;;;;;6.53;1.93;;;25.60;89.10;;;;;;5051627;28;20833;-76
2024/01/25 11:12:51;;;;;;;8.20;2.53;;;25.20;88.50;;;;;;5048280;28;20476;-76
2024/01/25 11:15:31;;;;;;;5.53;2.37;;;24.20;88.30;;;;;;5048098;28;20463;-75
2024/01/25 11:17:58;;;;;;;4.43;2.33;;;22.60;89.90;;;;;;5046335;28;20459;-76
2024/01/25 11:20:31;;;;;;;3.60;1.93;;;21.10;91.00;;;;;;5046056;28;20476;-75
2024/01/25 11:22:59;;;;;;;2.87;1.57;;;19.50;92.60;;;;;;5050809;28;20483;-75
2024/01/25 11:25:28;;;;;;;4.60;1.60;;;18.10;93.40;;;;;;5046429;28;20468;-75
2024/01/25 11:27:55;;;;;;;3.00;1.47;;;17.00;94.80;;;;;;5048921;28;20460;-75
2024/01/25 11:30:22;;;;;;;3.33;2.10;;;16.70;95.60;;;;;;5048252;28;20546;-75
2024/01/25 11:32:50;;;;;;;5.60;2.03;;;17.10;95.40;;;;;;5050910;28;20475;-75
2024/01/25 11:35:18;;;;;;;4.67;2.27;;;17.80;95.20;;;;;;5046571;28;20459;-75
2024/01/25 11:37:45;;;;;;;4.07;1.53;;;19.50;93.60;;;;;;5041762;28;20960;-75
2024/01/25 11:40:13;;;;;;;3.27;1.97;;;21.20;92.30;;;;;;5047710;28;20509;-75
2024/01/25 11:42:40;;;;;;;5.80;2.03;;;22.80;91.00;;;;;;5047994;28;20491;-75
2024/01/25 11:45:10;;;;;;;5.73;1.60;;;23.90;88.50;;;;;;5048395;28;20463;-75
2024/01/25 11:47:38;;;;;;;4.83;1.83;;;23.20;89.10;;;;;;5047885;28;20487;-75
2024/01/25 11:50:08;;;;;;;2.50;2.27;;;22.30;90.20;;;;;;5050168;28;20462;-75
2024/01/25 11:52:35;;;;;;;4.07;1.73;;;21.50;90.60;;;;;;5047277;28;20488;-75
2024/01/25 11:55:03;;;;;;;2.80;1.50;;;20.90;91.20;;;;;;5050008;28;20459;-75
2024/01/25 11:57:31;;;;;;;2.80;1.70;;;20.60;91.10;;;;;;5048405;28;20507;-75
2024/01/25 11:59:58;;;;;;;4.40;1.80;;;20.60;91.30;;;;;;5050157;28;20460;-75
2024/01/25 12:02:25;;;;;;;4.30;2.67;;;20.60;90.80;;;;;;5046851;28;20506;-75
2024/01/25 12:04:53;;;;;;;5.83;1.83;;;20.00;91.80;;;;;;5050165;28;20459;-75
2024/01/25 12:07:22;;;;;;;4.90;1.70;;;19.60;91.60;;;;;;5047000;28;20491;-75
2024/01/25 12:09:59;;;;;;;4.00;2.03;;;19.40;91.30;;;;;;5048999;28;20470;-75
2024/01/25 12:12:26;;;;;;;3.27;1.63;;;19.90;91.50;;;;;;5049866;28;20476;-75
2024/01/25 12:14:57;;;;;;;4.40;2.37;;;20.60;91.30;;;;;;5051275;28;20467;-74
2024/01/25 12:17:24;;;;;;;5.30;2.00;;;21.20;90.60;;;;;;5048496;28;20490;-75
2024/01/25 12:19:51;;;;;;;4.60;2.00;;;21.20;90.50;;;;;;5050197;28;21163;-75
2024/01/25 12:22:22;;;;;;;4.87;1.67;;;21.20;90.80;;;;;;5047771;28;20483;-75
2024/01/25 12:24:49;;;;;;;4.87;1.50;;;21.40;90.40;;;;;;5042549;28;20463;-74
2024/01/25 12:27:16;;;;;;;4.63;2.17;;;21.30;90.40;;;;;;5049489;28;20458;-75
2024/01/25 12:29:44;;;;;;;4.23;1.77;;;21.00;90.70;;;;;;5049879;28;20472;-75
2024/01/25 12:32:11;;;;;;;2.60;1.73;;;20.80;90.80;;;;;;5050123;28;20475;-75
2024/01/25 12:34:39;;;;;;;6.00;2.20;;;20.70;91.20;;;;;;5047271;28;20492;-75
2024/01/25 12:37:06;;;;;;;2.10;1.53;;;20.50;91.20;;;;;;5050018;28;20533;-76
2024/01/25 12:39:34;;;;;;;2.87;1.33;;;20.00;91.20;;;;;;5047617;28;20477;-75
2024/01/25 12:42:00;;;;;;;3.90;1.87;;;19.60;91.40;;;;;;5049098;28;20479;-75
2024/01/25 12:44:27;;;;;;;5.20;1.40;;;19.30;92.00;;;;;;5048524;28;20455;-76
2024/01/25 12:46:54;;;;;;;6.50;1.80;;;19.20;92.20;;;;;;5050128;28;20550;-75
2024/01/25 12:49:23;;;;;;;3.77;2.30;;;19.10;92.10;;;;;;5049608;28;20478;-76
2024/01/25 12:51:49;;;;;;;3.73;1.70;;;18.70;92.20;;;;;;5049248;28;20467;-75
2024/01/25 12:54:16;;;;;;;5.70;2.17;;;18.70;92.30;;;;;;5049216;28;20459;-76